M I D A S
Marine Information and Data Acquisition System
Tripno 935 of the Zeeleeuw from 2005-07-04 06:34:52 to 2005-07-04 12:00:02
Back to CruiseResearch ActivitiesStationsMapUnderway DataData graphs

EquipmentUnitsComments
TimeDGPSUTC
LatitudeDGPSDM.mWGS84
LongitudeDGPSDM.mWGS84
SpeedMeteo Stationm/sRelative wind speed
DirectionMeteo StationdegRelative wind direction
TemperatureMeteo Stationdeg CelciusAir temperature
PressureMeteo StationPaAtmospheric pressure
HumidityMeteo Station%Relative humidity
Missing or incorrect values are displayed as -999
Metereological data collected by the RV Zeeleeuw from 2005-07-04 06:30:44 to 2005-07-04 12:10:51
                                                                                    Next 1000 lines
Time Latitude Longitude Speed Direction Temperature Pressure Humidity
2005-07-04 06:30:54 51°13.594 2°56.111 2.6 36 16.6 100400 100
2005-07-04 06:30:59 51°13.593 2°56.112 2.1 37 16.6 100400 100
2005-07-04 06:31:04 51°13.593 2°56.113 1.8 17 16.6 100390 100
2005-07-04 06:31:09 51°13.593 2°56.114 1.8 6 16.6 100390 100
2005-07-04 06:31:14 51°13.592 2°56.115 2.5 21 16.6 100390 100
2005-07-04 06:31:20 51°13.592 2°56.116 2.9 30 16.6 100390 100
2005-07-04 06:31:24 51°13.592 2°56.117 2.6 45 16.6 100390 100
2005-07-04 06:31:29 51°13.592 2°56.117 1.7 54 16.6 100390 100
2005-07-04 06:31:34 51°13.592 2°56.117 2 52 16.6 100390 100
2005-07-04 06:31:39 51°13.592 2°56.117 1.5 54 16.6 100390 100
2005-07-04 06:31:44 51°13.593 2°56.116 2.7 37 16.6 100390 100
2005-07-04 06:31:49 51°13.593 2°56.116 2.7 5 16.6 100390 100
2005-07-04 06:31:54 51°13.593 2°56.116 1.6 358 16.6 100390 100
2005-07-04 06:31:59 51°13.593 2°56.116 2 11 16.6 100390 100
2005-07-04 06:32:04 51°13.593 2°56.115 2.2 40 16.6 100390 100
2005-07-04 06:32:09 51°13.593 2°56.115 1.5 41 16.6 100390 100
2005-07-04 06:32:15 51°13.594 2°56.115 1.4 36 16.5 100390 100
2005-07-04 06:32:20 51°13.594 2°56.114 1.1 52 16.5 100390 100
2005-07-04 06:32:24 51°13.594 2°56.114 0.9 27 16.6 100390 100
2005-07-04 06:32:29 51°13.594 2°56.113 1.6 33 16.6 100390 100
2005-07-04 06:32:34 51°13.594 2°56.112 1.5 73 16.6 100390 100
2005-07-04 06:32:39 51°13.595 2°56.112 1.6 74 16.6 100390 100
2005-07-04 06:32:44 51°13.595 2°56.112 1.5 80 16.6 100390 100
2005-07-04 06:32:49 51°13.595 2°56.111 1.5 76 16.6 100390 100
2005-07-04 06:32:54 51°13.595 2°56.111 1.8 87 16.6 100390 100
2005-07-04 06:32:59 51°13.595 2°56.111 1.9 36 16.6 100390 100
2005-07-04 06:33:04 51°13.595 2°56.111 2.5 67 16.6 100380 100
2005-07-04 06:33:08 51°13.595 2°56.111 3.1 78 16.6 100380 100
2005-07-04 06:33:14 51°13.595 2°56.111 2.3 81 16.6 100380 100
2005-07-04 06:33:19 51°13.595 2°56.111 1.9 46 16.6 100380 100
2005-07-04 06:33:24 51°13.595 2°56.11 3 53 16.6 100380 100
2005-07-04 06:33:29 51°13.595 2°56.11 2.6 60 16.6 100380 100
2005-07-04 06:33:34 51°13.595 2°56.11 2.7 29 16.6 100380 100
2005-07-04 06:33:39 51°13.595 2°56.11 3 38 16.6 100380 100
2005-07-04 06:33:44 51°13.595 2°56.109 2.9 42 16.6 100380 100
2005-07-04 06:33:48 51°13.595 2°56.109 3 44 16.6 100380 100
2005-07-04 06:33:54 51°13.594 2°56.109 2.6 29 16.6 100380 100
2005-07-04 06:33:59 51°13.594 2°56.109 2.8 30 16.6 100380 100
2005-07-04 06:34:04 51°13.594 2°56.108 2.5 42 16.6 100380 100
2005-07-04 06:34:10 51°13.594 2°56.108 2.7 46 16.6 100380 100
2005-07-04 06:34:14 51°13.594 2°56.108 3.1 45 16.6 100380 100
2005-07-04 06:34:19 51°13.594 2°56.109 2.9 52 16.6 100380 100
2005-07-04 06:34:24 51°13.593 2°56.11 2.7 18 16.6 100380 100
2005-07-04 06:34:30 51°13.591 2°56.112 2.5 31 16.6 100380 100
2005-07-04 06:34:34 51°13.59 2°56.114 2.9 26 16.5 100380 100
2005-07-04 06:34:39 51°13.587 2°56.117 2.6 19 16.5 100380 100
2005-07-04 06:34:44 51°13.585 2°56.12 3.6 20 16.5 100380 100
2005-07-04 06:34:50 51°13.581 2°56.124 3.3 24 16.5 100380 100
2005-07-04 06:34:54 51°13.578 2°56.128 4.5 18 16.5 100380 100
2005-07-04 06:35:00 51°13.575 2°56.132 4.1 15 16.5 100380 100
2005-07-04 06:35:04 51°13.571 2°56.135 4 18 16.6 100380 100
2005-07-04 06:35:10 51°13.567 2°56.14 3.6 11 16.6 100380 100
2005-07-04 06:35:14 51°13.564 2°56.144 3 14 16.5 100380 100
2005-07-04 06:35:20 51°13.56 2°56.15 2.6 24 16.5 100380 100
2005-07-04 06:35:24 51°13.557 2°56.155 3.4 26 16.6 100380 100
2005-07-04 06:35:29 51°13.555 2°56.161 3.6 43 16.6 100380 100
2005-07-04 06:35:34 51°13.552 2°56.168 3.4 39 16.6 100380 100
2005-07-04 06:35:39 51°13.551 2°56.176 3.7 38 16.6 100380 100
2005-07-04 06:35:44 51°13.55 2°56.182 3 63 16.6 100380 100
2005-07-04 06:35:49 51°13.55 2°56.189 3.2 52 16.6 100380 100
2005-07-04 06:35:54 51°13.55 2°56.193 3.5 58 16.6 100380 100
2005-07-04 06:35:59 51°13.55 2°56.196 2.8 74 16.6 100380 100
2005-07-04 06:36:04 51°13.55 2°56.198 3 69 16.6 100380 100
2005-07-04 06:36:09 51°13.551 2°56.199 1.9 87 16.6 100380 100
2005-07-04 06:36:14 51°13.551 2°56.199 1.5 90 16.6 100380 100
2005-07-04 06:36:19 51°13.551 2°56.199 1.7 101 16.6 100380 100
2005-07-04 06:36:24 51°13.551 2°56.197 2.3 97 16.5 100380 100
2005-07-04 06:36:30 51°13.551 2°56.194 2.2 116 16.5 100380 100
2005-07-04 06:36:34 51°13.552 2°56.192 2.8 114 16.6 100380 100
2005-07-04 06:36:39 51°13.552 2°56.191 2.1 103 16.6 100380 100
2005-07-04 06:36:44 51°13.552 2°56.191 1.6 106 16.5 100380 100
2005-07-04 06:36:50 51°13.552 2°56.192 1.9 110 16.5 100380 100
2005-07-04 06:36:54 51°13.553 2°56.193 1.8 96 16.5 100380 100
2005-07-04 06:37:00 51°13.554 2°56.194 1.9 98 16.5 100380 100
2005-07-04 06:37:04 51°13.554 2°56.195 1.7 122 16.5 100380 100
2005-07-04 06:37:09 51°13.555 2°56.195 2 129 16.5 100380 100
2005-07-04 06:37:14 51°13.555 2°56.194 1.7 138 16.5 100370 100
2005-07-04 06:37:20 51°13.555 2°56.193 2.1 143 16.5 100370 100
2005-07-04 06:37:24 51°13.555 2°56.192 2.2 132 16.5 100380 100
2005-07-04 06:37:29 51°13.554 2°56.19 1.9 143 16.5 100380 100
2005-07-04 06:37:34 51°13.553 2°56.188 1.9 150 16.5 100370 100
2005-07-04 06:37:39 51°13.552 2°56.186 1.9 139 16.5 100370 100
2005-07-04 06:37:44 51°13.551 2°56.184 1.7 132 16.5 100370 100
2005-07-04 06:37:49 51°13.551 2°56.183 1.6 134 16.5 100370 100
2005-07-04 06:37:54 51°13.551 2°56.182 1.5 129 16.5 100370 100
2005-07-04 06:37:59 51°13.552 2°56.182 1.6 124 16.5 100370 100
2005-07-04 06:38:04 51°13.554 2°56.183 1.7 114 16.6 100370 100
2005-07-04 06:38:09 51°13.555 2°56.183 1.1 119 16.6 100370 100
2005-07-04 06:38:14 51°13.556 2°56.183 1.1 150 16.6 100370 100
2005-07-04 06:38:18 51°13.556 2°56.182 2.1 166 16.6 100370 100
2005-07-04 06:38:24 51°13.555 2°56.181 3.2 163 16.6 100370 100
2005-07-04 06:38:29 51°13.554 2°56.18 2.4 166 16.6 100370 100
2005-07-04 06:38:34 51°13.552 2°56.179 2.1 192 16.5 100370 100
2005-07-04 06:38:40 51°13.551 2°56.178 1.5 201 16.5 100370 100
2005-07-04 06:38:44 51°13.551 2°56.178 2.6 216 16.6 100360 100
2005-07-04 06:38:48 51°13.552 2°56.177 1.5 251 16.6 100360 100
2005-07-04 06:38:54 51°13.553 2°56.176 1.7 245 16.5 100360 100
2005-07-04 06:38:59 51°13.554 2°56.174 1.7 243 16.5 100360 100
2005-07-04 06:39:04 51°13.555 2°56.173 1.8 232 16.6 100360 100
2005-07-04 06:39:10 51°13.556 2°56.172 1.8 227 16.6 100360 100
2005-07-04 06:39:14 51°13.556 2°56.171 2.2 229 16.6 100360 100
2005-07-04 06:39:18 51°13.556 2°56.17 1.9 233 16.6 100360 100
2005-07-04 06:39:23 51°13.555 2°56.169 1.6 212 16.5 100360 100
2005-07-04 06:39:28 51°13.554 2°56.168 1.4 216 16.5 100360 100
2005-07-04 06:39:34 51°13.552 2°56.168 2.4 240 16.5 100360 100
2005-07-04 06:39:39 51°13.551 2°56.168 2 230 16.5 100360 100
2005-07-04 06:39:44 51°13.55 2°56.168 1.2 180 16.6 100360 100
2005-07-04 06:39:50 51°13.55 2°56.167 0.7 203 16.6 100360 100
2005-07-04 06:39:54 51°13.55 2°56.166 0.4 195 16.6 100360 100
2005-07-04 06:40:00 51°13.551 2°56.163 0.3 173 16.6 100360 100
2005-07-04 06:40:04 51°13.553 2°56.161 0.8 101 16.6 100360 100
2005-07-04 06:40:09 51°13.555 2°56.157 0.6 108 16.6 100360 100
2005-07-04 06:40:14 51°13.557 2°56.153 0.8 296 16.6 100360 100
2005-07-04 06:40:19 51°13.559 2°56.147 1.2 310 16.6 100360 100
2005-07-04 06:40:24 51°13.561 2°56.141 1.3 309 16.6 100350 100
2005-07-04 06:40:30 51°13.563 2°56.132 1.2 309 16.6 100350 100
2005-07-04 06:40:34 51°13.565 2°56.125 1.4 325 16.6 100360 100
2005-07-04 06:40:39 51°13.567 2°56.117 1.1 324 16.6 100360 100
2005-07-04 06:40:44 51°13.569 2°56.107 1.3 316 16.6 100360 100
2005-07-04 06:40:49 51°13.572 2°56.098 2.1 226 16.6 100360 100
2005-07-04 06:40:54 51°13.575 2°56.089 2 323 16.6 100360 100
2005-07-04 06:40:58 51°13.577 2°56.081 2.7 41 16.6 100360 100
2005-07-04 06:41:04 51°13.581 2°56.068 3.4 320 16.6 100350 100
2005-07-04 06:41:09 51°13.585 2°56.057 2.9 329 16.6 100350 100
2005-07-04 06:41:14 51°13.589 2°56.046 2.8 328 16.6 100360 100
2005-07-04 06:41:19 51°13.593 2°56.035 2.3 331 16.6 100360 100
2005-07-04 06:41:24 51°13.596 2°56.025 1.9 358 16.6 100350 100
2005-07-04 06:41:29 51°13.601 2°56.013 1.8 349 16.6 100350 100
2005-07-04 06:41:34 51°13.605 2°56.002 2.4 320 16.6 100360 100
2005-07-04 06:41:39 51°13.61 2°55.99 2 317 16.6 100360 100
2005-07-04 06:41:44 51°13.614 2°55.98 1.2 333 16.6 100360 100
2005-07-04 06:41:49 51°13.62 2°55.967 1.5 340 16.6 100360 100
2005-07-04 06:41:54 51°13.625 2°55.955 1.7 339 16.6 100360 100
2005-07-04 06:41:59 51°13.63 2°55.943 1.8 344 16.6 100360 100
2005-07-04 06:42:04 51°13.635 2°55.931 2.2 348 16.6 100360 100
2005-07-04 06:42:09 51°13.64 2°55.92 2.4 341 16.6 100360 100
2005-07-04 06:42:14 51°13.646 2°55.907 3.5 346 16.6 100360 100
2005-07-04 06:42:19 51°13.651 2°55.895 3.5 352 16.6 100360 100
2005-07-04 06:42:24 51°13.656 2°55.884 3.1 357 16.6 100360 100
2005-07-04 06:42:29 51°13.662 2°55.87 2.7 337 16.6 100360 100
2005-07-04 06:42:34 51°13.668 2°55.858 2.9 349 16.6 100360 100
2005-07-04 06:42:39 51°13.673 2°55.846 2.4 346 16.6 100360 100
2005-07-04 06:42:44 51°13.679 2°55.835 2.8 342 16.6 100360 100
2005-07-04 06:42:50 51°13.686 2°55.82 4 333 16.6 100360 100
2005-07-04 06:42:54 51°13.691 2°55.809 3.3 331 16.6 100360 100
2005-07-04 06:42:59 51°13.697 2°55.797 3.2 338 16.6 100360 100
2005-07-04 06:43:04 51°13.702 2°55.786 3.1 332 16.6 100360 100
2005-07-04 06:43:10 51°13.71 2°55.771 3 319 16.6 100360 100
2005-07-04 06:43:14 51°13.716 2°55.762 2.3 321 16.6 100360 100
2005-07-04 06:43:19 51°13.723 2°55.75 2.2 321 16.6 100360 100
2005-07-04 06:43:24 51°13.731 2°55.739 2.5 330 16.6 100360 100
2005-07-04 06:43:29 51°13.739 2°55.727 2.9 323 16.6 100360 100
2005-07-04 06:43:34 51°13.746 2°55.717 2.4 317 16.6 100360 100
2005-07-04 06:43:39 51°13.755 2°55.705 2.2 318 16.6 100360 100
2005-07-04 06:43:44 51°13.762 2°55.696 2.2 321 16.6 100360 100
2005-07-04 06:43:49 51°13.772 2°55.684 1.8 321 16.6 100360 100
2005-07-04 06:43:54 51°13.78 2°55.674 2.4 340 16.6 100360 100
2005-07-04 06:43:58 51°13.787 2°55.667 2.1 338 16.6 100360 100
2005-07-04 06:44:04 51°13.797 2°55.657 2 330 16.6 100360 100
2005-07-04 06:44:09 51°13.808 2°55.647 1.9 326 16.6 100360 100
2005-07-04 06:44:14 51°13.817 2°55.639 2 324 16.6 100360 100
2005-07-04 06:44:19 51°13.827 2°55.631 2 336 16.6 100360 100
2005-07-04 06:44:24 51°13.836 2°55.625 1.7 339 16.6 100360 100
2005-07-04 06:44:29 51°13.846 2°55.617 1.5 339 16.6 100360 100
2005-07-04 06:44:34 51°13.857 2°55.609 1.3 331 16.6 100370 100
2005-07-04 06:44:39 51°13.866 2°55.602 1.3 331 16.6 100370 100
2005-07-04 06:44:44 51°13.876 2°55.595 2.4 15 16.6 100370 100
2005-07-04 06:44:49 51°13.887 2°55.587 2.3 8 16.6 100370 100
2005-07-04 06:44:54 51°13.897 2°55.58 2.3 342 16.6 100370 100
2005-07-04 06:45:00 51°13.908 2°55.572 1.7 339 16.6 100370 100
2005-07-04 06:45:04 51°13.916 2°55.566 1.8 343 16.6 100360 100
2005-07-04 06:45:09 51°13.928 2°55.559 2.8 357 16.6 100360 100
2005-07-04 06:45:14 51°13.938 2°55.552 2.9 341 16.6 100360 100
2005-07-04 06:45:20 51°13.949 2°55.545 2.7 341 16.6 100360 100
2005-07-04 06:45:24 51°13.957 2°55.539 2.8 354 16.6 100360 100
2005-07-04 06:45:29 51°13.969 2°55.531 2.6 359 16.6 100360 100
2005-07-04 06:45:34 51°13.978 2°55.525 1.8 352 16.6 100360 100
2005-07-04 06:45:39 51°13.989 2°55.517 2.5 349 16.6 100360 100
2005-07-04 06:45:44 51°13.998 2°55.51 2.6 346 16.6 100360 100
2005-07-04 06:45:50 51°14.01 2°55.502 3 337 16.6 100360 100
2005-07-04 06:45:54 51°14.02 2°55.496 2.2 325 16.6 100360 100
2005-07-04 06:46:00 51°14.031 2°55.489 1.8 326 16.6 100360 100
2005-07-04 06:46:04 51°14.039 2°55.484 2.5 345 16.6 100360 100
2005-07-04 06:46:10 51°14.051 2°55.476 2.5 351 16.6 100360 100
2005-07-04 06:46:14 51°14.061 2°55.47 2.7 343 16.6 100360 100
2005-07-04 06:46:18 51°14.069 2°55.464 2.5 344 16.6 100360 100
2005-07-04 06:46:23 51°14.079 2°55.458 2.2 344 16.6 100360 100
2005-07-04 06:46:29 51°14.092 2°55.45 2.3 345 16.6 100360 100
2005-07-04 06:46:34 51°14.103 2°55.442 2.2 353 16.6 100360 100
2005-07-04 06:46:39 51°14.113 2°55.434 2.6 346 16.6 100360 100
2005-07-04 06:46:44 51°14.124 2°55.426 2.6 353 16.6 100350 100
2005-07-04 06:46:49 51°14.136 2°55.415 2.9 352 16.6 100350 100
2005-07-04 06:46:54 51°14.148 2°55.405 4.1 341 16.6 100360 100
2005-07-04 06:46:59 51°14.159 2°55.394 3.8 342 16.6 100360 100
2005-07-04 06:47:04 51°14.171 2°55.382 3.7 334 16.6 100360 100
2005-07-04 06:47:10 51°14.183 2°55.368 3.7 334 16.6 100360 100
2005-07-04 06:47:14 51°14.192 2°55.357 4.1 349 16.6 100360 100
2005-07-04 06:47:19 51°14.204 2°55.342 4.4 342 16.6 100360 100
2005-07-04 06:47:24 51°14.215 2°55.328 3.7 332 16.6 100350 100
2005-07-04 06:47:29 51°14.225 2°55.313 5.3 340 16.6 100350 100
2005-07-04 06:47:34 51°14.234 2°55.299 5.5 348 16.6 100350 100
2005-07-04 06:47:39 51°14.245 2°55.28 5.4 351 16.6 100350 100
2005-07-04 06:47:44 51°14.254 2°55.265 5.4 348 16.6 100350 100
2005-07-04 06:47:49 51°14.265 2°55.246 5.3 354 16.6 100350 100
2005-07-04 06:47:54 51°14.275 2°55.228 5.9 352 16.6 100350 100
2005-07-04 06:47:59 51°14.285 2°55.21 5.3 350 16.6 100350 100
2005-07-04 06:48:04 51°14.294 2°55.194 6.4 353 16.6 100350 100
2005-07-04 06:48:10 51°14.305 2°55.171 6.8 341 16.6 100350 100
2005-07-04 06:48:14 51°14.314 2°55.154 6.4 343 16.6 100350 100
2005-07-04 06:48:19 51°14.324 2°55.135 6.2 349 16.6 100350 100
2005-07-04 06:48:24 51°14.334 2°55.116 6.8 351 16.6 100340 100
2005-07-04 06:48:30 51°14.345 2°55.094 5.9 352 16.6 100340 100
2005-07-04 06:48:34 51°14.353 2°55.077 6.3 345 16.6 100340 100
2005-07-04 06:48:38 51°14.362 2°55.061 6.7 339 16.6 100340 100
2005-07-04 06:48:44 51°14.373 2°55.038 7.8 335 16.6 100340 100
2005-07-04 06:48:48 51°14.381 2°55.022 7.8 340 16.6 100340 100
2005-07-04 06:48:54 51°14.394 2°54.996 6.9 343 16.6 100340 100
2005-07-04 06:48:59 51°14.405 2°54.975 7.4 339 16.6 100340 100
2005-07-04 06:49:04 51°14.416 2°54.955 6.6 333 16.6 100340 100
2005-07-04 06:49:09 51°14.427 2°54.937 6.3 335 16.6 100340 100
2005-07-04 06:49:14 51°14.439 2°54.916 6.1 337 16.6 100340 100
2005-07-04 06:49:18 51°14.448 2°54.9 6.5 330 16.6 100340 100
2005-07-04 06:49:24 51°14.461 2°54.878 6.7 335 16.6 100330 100
2005-07-04 06:49:28 51°14.471 2°54.862 7 334 16.6 100330 100
2005-07-04 06:49:34 51°14.487 2°54.838 6.4 333 16.6 100340 100
2005-07-04 06:49:38 51°14.497 2°54.823 6.3 331 16.6 100340 100
2005-07-04 06:49:43 51°14.511 2°54.806 5.9 333 16.6 100340 100
2005-07-04 06:49:49 51°14.528 2°54.786 6.5 335 16.6 100340 100
2005-07-04 06:49:54 51°14.542 2°54.77 5.9 331 16.6 100340 100
2005-07-04 06:49:58 51°14.553 2°54.757 5.5 332 16.6 100340 100
2005-07-04 06:50:04 51°14.571 2°54.738 5.8 333 16.6 100340 100
2005-07-04 06:50:09 51°14.585 2°54.724 5.8 334 16.6 100340 100
2005-07-04 06:50:14 51°14.601 2°54.706 5.9 334 16.6 100340 100
2005-07-04 06:50:19 51°14.616 2°54.691 6.1 330 16.6 100340 100
2005-07-04 06:50:24 51°14.63 2°54.677 6.3 333 16.6 100340 100
2005-07-04 06:50:29 51°14.647 2°54.66 6.2 332 16.6 100340 100
2005-07-04 06:50:34 51°14.662 2°54.644 6 331 16.6 100340 100
2005-07-04 06:50:39 51°14.678 2°54.628 6 330 16.6 100340 100
2005-07-04 06:50:44 51°14.691 2°54.613 6.3 334 16.6 100340 100
2005-07-04 06:50:49 51°14.708 2°54.594 6.1 331 16.6 100340 100
2005-07-04 06:50:54 51°14.724 2°54.577 6.1 335 16.6 100340 100
2005-07-04 06:51:00 51°14.74 2°54.558 5.9 333 16.6 100340 100
2005-07-04 06:51:04 51°14.753 2°54.545 6.9 331 16.6 100340 100
2005-07-04 06:51:09 51°14.77 2°54.527 6.9 330 16.6 100340 100
2005-07-04 06:51:14 51°14.786 2°54.51 7.2 333 16.6 100340 100
2005-07-04 06:51:19 51°14.802 2°54.493 6.9 331 16.6 100340 100
2005-07-04 06:51:24 51°14.815 2°54.477 7.1 329 16.6 100340 100
2005-07-04 06:51:29 51°14.832 2°54.458 6.4 326 16.6 100340 100
2005-07-04 06:51:34 51°14.848 2°54.441 6.3 330 16.6 100340 100
2005-07-04 06:51:39 51°14.863 2°54.424 6.5 330 16.6 100340 100
2005-07-04 06:51:44 51°14.877 2°54.408 6 329 16.6 100340 100
2005-07-04 06:51:49 51°14.894 2°54.39 6.2 328 16.6 100340 100
2005-07-04 06:51:54 51°14.909 2°54.373 6.4 330 16.6 100340 100
2005-07-04 06:51:59 51°14.925 2°54.357 6.2 327 16.6 100340 100
2005-07-04 06:52:04 51°14.94 2°54.341 5.8 324 16.6 100340 100
2005-07-04 06:52:09 51°14.956 2°54.326 6.9 41 16.6 100340 100
2005-07-04 06:52:14 51°14.972 2°54.312 6.6 314 16.6 100340 100
2005-07-04 06:52:19 51°14.988 2°54.297 6.5 314 16.6 100340 100
2005-07-04 06:52:24 51°15.003 2°54.283 6.5 313 16.6 100340 100
2005-07-04 06:52:30 51°15.021 2°54.268 5.9 43 16.6 100340 100
2005-07-04 06:52:34 51°15.035 2°54.255 6.6 42 16.6 100340 100
2005-07-04 06:52:39 51°15.051 2°54.24 5.8 316 16.6 100340 100
2005-07-04 06:52:44 51°15.065 2°54.227 6.2 318 16.6 100350 100
2005-07-04 06:52:48 51°15.078 2°54.215 6.4 -999 16.6 100350 100
2005-07-04 06:52:54 51°15.098 2°54.195 6.1 320 16.6 100350 100
2005-07-04 06:52:59 51°15.112 2°54.18 6.1 320 16.6 100350 100
2005-07-04 06:53:04 51°15.127 2°54.163 5.9 324 16.6 100350 100
2005-07-04 06:53:09 51°15.144 2°54.145 6.8 326 16.6 100350 100
2005-07-04 06:53:14 51°15.159 2°54.127 7.4 318 16.6 100350 100
2005-07-04 06:53:19 51°15.174 2°54.11 7.8 319 16.6 100350 100
2005-07-04 06:53:23 51°15.186 2°54.096 6.2 322 16.6 100350 100
2005-07-04 06:53:29 51°15.205 2°54.076 7.5 321 16.6 100350 100
2005-07-04 06:53:34 51°15.221 2°54.059 7.7 323 16.6 100350 100
2005-07-04 06:53:38 51°15.233 2°54.046 7.1 320 16.6 100350 100
2005-07-04 06:53:43 51°15.249 2°54.03 7.4 320 16.6 100340 100
2005-07-04 06:53:49 51°15.268 2°54.012 6.7 -999 16.6 100340 100
2005-07-04 06:53:54 51°15.285 2°53.997 6.3 317 16.6 100350 100
2005-07-04 06:53:59 51°15.301 2°53.981 6.8 228 16.6 100350 100
2005-07-04 06:54:04 51°15.317 2°53.966 7.3 318 16.6 100340 100
2005-07-04 06:54:09 51°15.331 2°53.952 7.4 319 16.6 100340 100
2005-07-04 06:54:14 51°15.349 2°53.934 7.4 317 16.6 100340 100
2005-07-04 06:54:19 51°15.365 2°53.918 6.8 321 16.6 100340 100
2005-07-04 06:54:24 51°15.379 2°53.903 7.6 320 16.6 100340 100
2005-07-04 06:54:29 51°15.397 2°53.884 7.6 320 16.6 100340 100
2005-07-04 06:54:34 51°15.412 2°53.867 7.7 319 16.6 100340 100
2005-07-04 06:54:39 51°15.428 2°53.85 7.6 41 16.6 100340 100
2005-07-04 06:54:44 51°15.442 2°53.836 7.2 315 16.6 100350 100
2005-07-04 06:54:49 51°15.46 2°53.817 6.8 -999 16.6 100350 100
2005-07-04 06:54:54 51°15.476 2°53.802 7.5 317 16.6 100350 100
2005-07-04 06:54:59 51°15.492 2°53.787 6.5 316 16.6 100350 100
2005-07-04 06:55:04 51°15.507 2°53.774 8.1 317 16.6 100340 100
2005-07-04 06:55:10 51°15.527 2°53.756 6.8 317 16.6 100340 100
2005-07-04 06:55:14 51°15.542 2°53.743 6.4 226 16.6 100350 100
2005-07-04 06:55:19 51°15.559 2°53.73 6.6 312 16.6 100350 100
2005-07-04 06:55:24 51°15.574 2°53.717 6.2 43 16.6 100350 100
2005-07-04 06:55:30 51°15.594 2°53.7 6.4 40 16.6 100350 100
2005-07-04 06:55:34 51°15.607 2°53.689 6.8 317 16.6 100350 100
2005-07-04 06:55:39 51°15.624 2°53.675 7.1 316 16.6 100350 100
2005-07-04 06:55:44 51°15.641 2°53.662 6.7 316 16.6 100350 100
2005-07-04 06:55:49 51°15.659 2°53.646 6.9 316 16.6 100350 100
2005-07-04 06:55:54 51°15.674 2°53.634 6.7 308 16.6 100350 100
2005-07-04 06:55:59 51°15.693 2°53.619 6.8 309 16.6 100350 100
2005-07-04 06:56:04 51°15.708 2°53.607 6.4 309 16.7 100350 100
2005-07-04 06:56:10 51°15.728 2°53.59 6.5 312 16.7 100350 100
2005-07-04 06:56:14 51°15.743 2°53.577 6.6 228 16.7 100350 100
2005-07-04 06:56:20 51°15.762 2°53.561 7.2 42 16.7 100350 100
2005-07-04 06:56:24 51°15.777 2°53.548 6.7 317 16.7 100350 100
2005-07-04 06:56:29 51°15.792 2°53.536 6.8 313 16.7 100350 100
2005-07-04 06:56:34 51°15.809 2°53.523 6.4 227 16.7 100350 100
2005-07-04 06:56:39 51°15.825 2°53.508 6.8 313 16.7 100350 100
2005-07-04 06:56:44 51°15.841 2°53.493 6.6 230 16.7 100350 100
2005-07-04 06:56:49 51°15.856 2°53.481 6.5 -999 16.7 100350 100
2005-07-04 06:56:54 51°15.874 2°53.466 6.2 310 16.7 100350 100
2005-07-04 06:56:58 51°15.887 2°53.455 6.4 317 16.7 100350 100
2005-07-04 06:57:04 51°15.905 2°53.439 5.8 320 16.7 100350 100
2005-07-04 06:57:09 51°15.923 2°53.425 5.6 313 16.7 100350 100
2005-07-04 06:57:14 51°15.939 2°53.412 6 40 16.7 100350 100
2005-07-04 06:57:19 51°15.956 2°53.399 6.6 307 16.7 100350 100
2005-07-04 06:57:24 51°15.972 2°53.385 7.5 309 16.7 100350 100
2005-07-04 06:57:29 51°15.989 2°53.37 7.5 314 16.7 100350 100
2005-07-04 06:57:34 51°16.005 2°53.356 7.8 306 16.7 100350 100
2005-07-04 06:57:38 51°16.018 2°53.345 6.7 231 16.7 100350 100
2005-07-04 06:57:44 51°16.036 2°53.329 7.9 306 16.8 100350 100
2005-07-04 06:57:50 51°16.056 2°53.312 6.4 306 16.8 100350 100
2005-07-04 06:57:54 51°16.069 2°53.301 6.5 309 16.7 100350 100
2005-07-04 06:57:59 51°16.087 2°53.286 6.8 312 16.7 100350 100
2005-07-04 06:58:04 51°16.102 2°53.274 7.2 307 16.8 100350 100
2005-07-04 06:58:09 51°16.12 2°53.262 6.4 310 16.8 100350 100
2005-07-04 06:58:14 51°16.137 2°53.246 7.4 228 16.8 100350 100
2005-07-04 06:58:19 51°16.153 2°53.232 7.6 314 16.8 100350 100
2005-07-04 06:58:24 51°16.168 2°53.22 6.8 313 16.7 100350 100
2005-07-04 06:58:29 51°16.186 2°53.205 6.7 314 16.7 100350 100
2005-07-04 06:58:34 51°16.203 2°53.193 7.7 42 16.7 100350 100
2005-07-04 06:58:39 51°16.22 2°53.18 7.1 317 16.7 100350 100
2005-07-04 06:58:44 51°16.237 2°53.167 7.1 42 16.7 100350 100
2005-07-04 06:58:49 51°16.252 2°53.156 7.3 316 16.7 100350 100
2005-07-04 06:58:54 51°16.271 2°53.142 7.5 228 16.7 100350 100
2005-07-04 06:58:59 51°16.288 2°53.13 7.6 42 16.7 100350 100
2005-07-04 06:59:04 51°16.304 2°53.117 6.7 317 16.7 100350 100
2005-07-04 06:59:08 51°16.316 2°53.108 7.1 310 16.7 100350 100
2005-07-04 06:59:14 51°16.338 2°53.091 7.7 306 16.7 100350 100
2005-07-04 06:59:19 51°16.353 2°53.08 8.3 304 16.7 100350 100
2005-07-04 06:59:24 51°16.37 2°53.068 8.1 308 16.7 100350 100
2005-07-04 06:59:29 51°16.389 2°53.054 6.8 307 16.7 100350 100
2005-07-04 06:59:34 51°16.405 2°53.042 6.9 306 16.8 100350 100
2005-07-04 06:59:39 51°16.421 2°53.031 8.1 304 16.8 100350 100
2005-07-04 06:59:44 51°16.44 2°53.019 7.5 306 16.8 100350 100
2005-07-04 06:59:48 51°16.453 2°53.01 7.1 309 16.8 100350 100
2005-07-04 06:59:54 51°16.472 2°52.997 7 301 16.8 100350 100
2005-07-04 06:59:59 51°16.491 2°52.984 8 309 16.8 100350 100
2005-07-04 07:00:04 51°16.506 2°52.974 7.6 300 16.8 100350 100
2005-07-04 07:00:09 51°16.524 2°52.961 7.8 306 16.8 100350 100
2005-07-04 07:00:14 51°16.542 2°52.95 7.9 304 16.8 100360 100
2005-07-04 07:00:18 51°16.555 2°52.941 7.9 300 16.8 100360 100
2005-07-04 07:00:24 51°16.573 2°52.927 7.7 299 16.8 100360 100
2005-07-04 07:00:28 51°16.589 2°52.916 8.6 301 16.8 100360 100
2005-07-04 07:00:34 51°16.609 2°52.901 8.4 303 16.8 100360 100
2005-07-04 07:00:39 51°16.626 2°52.889 9.5 296 16.8 100360 100
2005-07-04 07:00:44 51°16.642 2°52.878 8.5 300 16.8 100360 100
2005-07-04 07:00:49 51°16.659 2°52.867 9 290 16.8 100360 100
2005-07-04 07:00:54 51°16.676 2°52.856 9 293 16.8 100370 100
2005-07-04 07:00:59 51°16.691 2°52.845 7.2 294 16.8 100370 100
2005-07-04 07:01:04 51°16.707 2°52.834 7.8 291 16.8 100360 100
2005-07-04 07:01:09 51°16.724 2°52.822 9.7 299 16.8 100360 100
2005-07-04 07:01:14 51°16.742 2°52.81 8.8 305 16.8 100360 100
2005-07-04 07:01:19 51°16.759 2°52.798 9.7 313 16.8 100360 100
2005-07-04 07:01:24 51°16.773 2°52.788 10.4 308 16.8 100360 100
2005-07-04 07:01:29 51°16.791 2°52.776 12.5 314 16.8 100360 100
2005-07-04 07:01:34 51°16.807 2°52.764 13 311 16.8 100360 100
2005-07-04 07:01:39 51°16.822 2°52.754 12.2 316 16.8 100360 100
2005-07-04 07:01:44 51°16.838 2°52.743 11.4 318 16.7 100350 100
2005-07-04 07:01:49 51°16.856 2°52.73 13.2 322 16.7 100350 100
2005-07-04 07:01:54 51°16.872 2°52.719 11.8 41 16.7 100350 100
2005-07-04 07:01:59 51°16.888 2°52.707 11 43 16.7 100350 100
2005-07-04 07:02:04 51°16.903 2°52.695 12.1 318 16.6 100340 100
2005-07-04 07:02:09 51°16.921 2°52.683 12.7 321 16.6 100340 100
2005-07-04 07:02:14 51°16.938 2°52.671 12 319 16.6 100350 100
2005-07-04 07:02:19 51°16.953 2°52.661 12.6 323 16.6 100350 100
2005-07-04 07:02:23 51°16.967 2°52.651 13.2 321 16.6 100350 100
2005-07-04 07:02:28 51°16.982 2°52.641 12.3 325 16.6 100350 100
2005-07-04 07:02:34 51°17.003 2°52.625 11.4 323 16.6 100350 100
2005-07-04 07:02:39 51°17.018 2°52.614 12.1 323 16.6 100350 100
2005-07-04 07:02:43 51°17.032 2°52.602 11.5 318 16.5 100340 100
2005-07-04 07:02:49 51°17.052 2°52.588 12.1 323 16.5 100340 100
2005-07-04 07:02:54 51°17.068 2°52.576 12.9 318 16.5 100360 100
2005-07-04 07:02:58 51°17.082 2°52.566 12.9 318 16.5 100360 100
2005-07-04 07:03:04 51°17.1 2°52.554 12.6 316 16.5 100340 100
2005-07-04 07:03:09 51°17.116 2°52.544 12.4 320 16.5 100340 100
2005-07-04 07:03:14 51°17.133 2°52.532 12.1 317 16.5 100340 100
2005-07-04 07:03:19 51°17.149 2°52.52 11.1 323 16.5 100340 100
2005-07-04 07:03:24 51°17.166 2°52.508 11.7 321 16.5 100340 100
2005-07-04 07:03:28 51°17.177 2°52.5 12.9 316 16.5 100340 100
2005-07-04 07:03:34 51°17.198 2°52.485 12.2 321 16.4 100350 100
2005-07-04 07:03:39 51°17.213 2°52.474 11.5 320 16.4 100350 100
2005-07-04 07:03:44 51°17.229 2°52.463 12.2 320 16.4 100350 100
2005-07-04 07:03:49 51°17.247 2°52.449 12.9 322 16.4 100350 100
2005-07-04 07:03:54 51°17.264 2°52.438 13.2 324 16.4 100350 100
2005-07-04 07:03:59 51°17.279 2°52.428 11.8 317 16.4 100350 100
2005-07-04 07:04:04 51°17.295 2°52.416 13 319 16.4 100350 100
2005-07-04 07:04:10 51°17.316 2°52.403 14 325 16.4 100350 100
2005-07-04 07:04:14 51°17.332 2°52.392 13.7 322 16.3 100350 100
2005-07-04 07:04:19 51°17.348 2°52.381 13.8 318 16.3 100350 100
2005-07-04 07:04:24 51°17.363 2°52.373 14.5 317 16.3 100340 100
2005-07-04 07:04:29 51°17.381 2°52.362 15 320 16.3 100340 100
2005-07-04 07:04:34 51°17.398 2°52.354 13.1 318 16.3 100340 100
2005-07-04 07:04:39 51°17.415 2°52.345 12 319 16.3 100340 100
2005-07-04 07:04:44 51°17.43 2°52.338 12.7 316 16.3 100350 100
2005-07-04 07:04:49 51°17.449 2°52.33 14.1 321 16.3 100350 100
2005-07-04 07:04:54 51°17.466 2°52.322 12.7 327 16.2 100340 100
2005-07-04 07:05:00 51°17.484 2°52.313 14.5 322 16.2 100340 100
2005-07-04 07:05:04 51°17.498 2°52.306 14 319 16.2 100340 100
2005-07-04 07:05:08 51°17.511 2°52.3 14 316 16.2 100340 100
2005-07-04 07:05:14 51°17.534 2°52.29 11.9 320 16.2 100340 100
2005-07-04 07:05:18 51°17.548 2°52.284 13.4 317 16.2 100340 100
2005-07-04 07:05:24 51°17.567 2°52.277 13.9 318 16.2 100350 100
2005-07-04 07:05:29 51°17.586 2°52.271 13.9 318 16.2 100350 100
2005-07-04 07:05:34 51°17.603 2°52.266 12 316 16.2 100340 100
2005-07-04 07:05:39 51°17.62 2°52.262 13.4 41 16.2 100340 100
2005-07-04 07:05:44 51°17.636 2°52.259 12.7 320 16.1 100340 100
2005-07-04 07:05:49 51°17.655 2°52.255 13.2 40 16.1 100340 100
2005-07-04 07:05:54 51°17.671 2°52.251 13.7 311 16.1 100350 100
2005-07-04 07:05:58 51°17.687 2°52.248 12.7 230 16.1 100350 100
2005-07-04 07:06:04 51°17.707 2°52.245 12.7 228 16.1 100350 100
2005-07-04 07:06:09 51°17.725 2°52.242 12.3 313 16.1 100350 100
2005-07-04 07:06:14 51°17.742 2°52.239 13.6 315 16.1 100340 100
2005-07-04 07:06:20 51°17.762 2°52.236 12.7 319 16.1 100340 100
2005-07-04 07:06:24 51°17.776 2°52.234 13.1 230 16.1 100350 100
2005-07-04 07:06:28 51°17.792 2°52.233 15.4 42 16.1 100350 100
2005-07-04 07:06:34 51°17.813 2°52.23 14.6 314 16.1 100350 100
2005-07-04 07:06:39 51°17.829 2°52.228 14.5 228 16.1 100350 100
2005-07-04 07:06:44 51°17.846 2°52.226 14.7 228 16.1 100350 100
2005-07-04 07:06:48 51°17.86 2°52.224 13.9 228 16.1 100350 100
2005-07-04 07:06:54 51°17.883 2°52.221 14.2 41 16.1 100350 100
2005-07-04 07:06:59 51°17.9 2°52.218 15 43 16.1 100350 100
2005-07-04 07:07:04 51°17.916 2°52.215 14.5 43 16 100340 100
2005-07-04 07:07:08 51°17.931 2°52.213 13.2 42 16 100340 100
2005-07-04 07:07:14 51°17.952 2°52.21 14.6 314 16 100340 100
2005-07-04 07:07:19 51°17.97 2°52.207 13.8 312 16 100340 100
2005-07-04 07:07:24 51°17.986 2°52.205 13.6 309 16 100350 100
2005-07-04 07:07:29 51°18.005 2°52.202 13.1 42 16 100350 100
2005-07-04 07:07:34 51°18.023 2°52.2 13.4 42 16 100340 100
2005-07-04 07:07:39 51°18.041 2°52.197 13.4 227 16 100340 100
2005-07-04 07:07:44 51°18.056 2°52.195 13.4 42 15.9 100340 100
2005-07-04 07:07:48 51°18.07 2°52.193 12.4 40 15.9 100340 100
2005-07-04 07:07:54 51°18.093 2°52.19 13.6 318 15.9 100350 100
2005-07-04 07:07:59 51°18.111 2°52.188 13.2 42 15.9 100350 100
2005-07-04 07:08:04 51°18.127 2°52.185 13.9 39 15.9 100350 100
2005-07-04 07:08:09 51°18.146 2°52.183 13.5 317 15.9 100350 100
2005-07-04 07:08:14 51°18.164 2°52.18 13.9 42 15.9 100350 100
2005-07-04 07:08:19 51°18.181 2°52.177 12.9 314 15.9 100350 100
2005-07-04 07:08:24 51°18.197 2°52.174 13.4 315 15.9 100340 100
2005-07-04 07:08:29 51°18.217 2°52.17 13 313 15.9 100340 100
2005-07-04 07:08:34 51°18.232 2°52.166 13.4 232 15.9 100350 100
2005-07-04 07:08:38 51°18.248 2°52.164 12.7 314 15.9 100350 100
2005-07-04 07:08:44 51°18.268 2°52.161 13.1 312 15.9 100350 100
2005-07-04 07:08:49 51°18.287 2°52.158 13.1 314 15.9 100350 100
2005-07-04 07:08:54 51°18.305 2°52.156 13.9 230 15.9 100350 100
2005-07-04 07:08:59 51°18.322 2°52.153 14.7 227 15.9 100350 100
2005-07-04 07:09:04 51°18.339 2°52.151 15 313 15.9 100340 100
2005-07-04 07:09:09 51°18.358 2°52.148 13 317 15.9 100340 100
2005-07-04 07:09:14 51°18.376 2°52.145 16.1 318 15.9 100360 100
2005-07-04 07:09:18 51°18.39 2°52.143 15.5 39 15.9 100360 100
2005-07-04 07:09:24 51°18.409 2°52.139 15.9 315 15.9 100350 100
2005-07-04 07:09:29 51°18.429 2°52.135 15.7 227 15.9 100350 100
2005-07-04 07:09:34 51°18.446 2°52.132 15.5 316 15.9 100340 100
2005-07-04 07:09:39 51°18.464 2°52.129 14.4 40 15.9 100340 100
2005-07-04 07:09:44 51°18.48 2°52.126 15 227 15.9 100340 100
2005-07-04 07:09:48 51°18.496 2°52.124 14.6 42 15.9 100340 100
2005-07-04 07:09:54 51°18.518 2°52.121 14.7 315 15.9 100340 100
2005-07-04 07:09:59 51°18.536 2°52.118 15.2 312 15.9 100340 100
2005-07-04 07:10:04 51°18.552 2°52.115 13.7 321 15.9 100340 100
2005-07-04 07:10:08 51°18.566 2°52.113 14.7 317 15.9 100340 100
2005-07-04 07:10:14 51°18.589 2°52.109 13.5 316 15.9 100340 100
2005-07-04 07:10:18 51°18.603 2°52.107 14.3 317 15.9 100340 100
2005-07-04 07:10:24 51°18.624 2°52.103 14.7 317 15.9 100340 100
2005-07-04 07:10:29 51°18.641 2°52.101 13.8 319 15.9 100340 100
2005-07-04 07:10:34 51°18.66 2°52.097 14.4 317 15.9 100350 100
2005-07-04 07:10:38 51°18.674 2°52.095 14.9 317 15.9 100350 100
2005-07-04 07:10:44 51°18.696 2°52.092 14.8 315 15.9 100340 100
2005-07-04 07:10:48 51°18.71 2°52.089 13.7 317 15.9 100340 100
2005-07-04 07:10:54 51°18.731 2°52.086 14.7 321 15.8 100340 100
2005-07-04 07:10:58 51°18.745 2°52.083 14.8 320 15.8 100340 100
2005-07-04 07:11:04 51°18.767 2°52.08 14.9 321 15.8 100340 100
2005-07-04 07:11:10 51°18.786 2°52.076 15 316 15.8 100340 100
2005-07-04 07:11:14 51°18.802 2°52.073 15 318 15.8 100340 100
2005-07-04 07:11:19 51°18.818 2°52.07 14.6 316 15.8 100340 100
2005-07-04 07:11:24 51°18.837 2°52.067 16.1 315 15.8 100340 100
2005-07-04 07:11:29 51°18.854 2°52.064 14.6 316 15.8 100340 100
2005-07-04 07:11:34 51°18.873 2°52.061 14.3 318 15.8 100340 100
2005-07-04 07:11:38 51°18.888 2°52.059 13.8 318 15.8 100340 100
2005-07-04 07:11:43 51°18.906 2°52.055 13.6 320 15.8 100340 100
2005-07-04 07:11:49 51°18.927 2°52.052 15.1 318 15.8 100340 100
2005-07-04 07:11:54 51°18.945 2°52.048 15.9 316 15.8 100340 100
2005-07-04 07:11:59 51°18.962 2°52.045 15.4 317 15.8 100340 100
2005-07-04 07:12:04 51°18.979 2°52.043 13.5 318 15.8 100340 100
2005-07-04 07:12:08 51°18.993 2°52.04 14.5 40 15.8 100340 100
2005-07-04 07:12:14 51°19.014 2°52.036 13.5 320 15.8 100340 100
2005-07-04 07:12:18 51°19.03 2°52.033 14.3 317 15.8 100340 100
2005-07-04 07:12:24 51°19.05 2°52.029 14.1 321 15.8 100340 100
2005-07-04 07:12:29 51°19.069 2°52.025 15.7 320 15.8 100340 100
2005-07-04 07:12:34 51°19.086 2°52.022 15.4 318 15.8 100340 100
2005-07-04 07:12:38 51°19.102 2°52.019 14.1 318 15.8 100340 100
2005-07-04 07:12:44 51°19.123 2°52.014 14.3 317 15.8 100330 100
2005-07-04 07:12:50 51°19.143 2°52.011 14.2 318 15.8 100330 100
2005-07-04 07:12:54 51°19.159 2°52.008 14 320 15.8 100340 100
2005-07-04 07:12:59 51°19.176 2°52.005 14.4 319 15.8 100340 100
2005-07-04 07:13:04 51°19.195 2°52.001 13.6 318 15.8 100330 100
2005-07-04 07:13:09 51°19.213 2°51.998 13.2 318 15.8 100330 100
2005-07-04 07:13:14 51°19.229 2°51.995 13.3 323 15.7 100340 100
2005-07-04 07:13:19 51°19.249 2°51.991 13.7 316 15.7 100340 100
2005-07-04 07:13:24 51°19.266 2°51.989 14 318 15.8 100340 100
2005-07-04 07:13:29 51°19.286 2°51.986 14.2 324 15.8 100340 100
2005-07-04 07:13:34 51°19.304 2°51.982 13.6 325 15.8 100340 100
2005-07-04 07:13:39 51°19.32 2°51.979 14.3 320 15.8 100340 100
2005-07-04 07:13:44 51°19.338 2°51.976 14.6 321 15.8 100340 100
2005-07-04 07:13:48 51°19.354 2°51.973 14.7 321 15.8 100340 100
2005-07-04 07:13:54 51°19.375 2°51.969 13.8 318 15.8 100340 100
2005-07-04 07:13:58 51°19.389 2°51.966 12.7 321 15.8 100340 100
2005-07-04 07:14:04 51°19.409 2°51.962 13.7 320 15.7 100340 100
2005-07-04 07:14:09 51°19.429 2°51.959 13.6 324 15.7 100340 100
2005-07-04 07:14:14 51°19.447 2°51.956 15 320 15.7 100340 100
2005-07-04 07:14:20 51°19.467 2°51.952 13.5 317 15.7 100340 100
2005-07-04 07:14:24 51°19.483 2°51.949 14.4 321 15.7 100340 100
2005-07-04 07:14:29 51°19.499 2°51.946 12.6 326 15.7 100340 100
2005-07-04 07:14:34 51°19.519 2°51.942 14.8 321 15.7 100330 100
2005-07-04 07:14:40 51°19.539 2°51.938 14.1 320 15.7 100330 100
2005-07-04 07:14:44 51°19.555 2°51.935 14.1 320 15.8 100340 100
2005-07-04 07:14:49 51°19.573 2°51.932 13.9 323 15.8 100340 100
2005-07-04 07:14:54 51°19.59 2°51.929 15.1 325 15.8 100330 100
2005-07-04 07:15:00 51°19.61 2°51.925 14.8 323 15.8 100330 100
2005-07-04 07:15:04 51°19.625 2°51.922 14.6 320 15.7 100320 100
2005-07-04 07:15:09 51°19.644 2°51.918 13.8 323 15.7 100320 100
2005-07-04 07:15:14 51°19.662 2°51.915 14.3 325 15.7 100330 100
2005-07-04 07:15:19 51°19.679 2°51.912 14.4 326 15.7 100330 100
2005-07-04 07:15:24 51°19.698 2°51.909 14.3 324 15.7 100330 100
2005-07-04 07:15:29 51°19.716 2°51.905 13.5 325 15.7 100330 100
2005-07-04 07:15:34 51°19.734 2°51.902 14.1 325 15.7 100330 100
2005-07-04 07:15:39 51°19.75 2°51.899 14 323 15.7 100330 100
2005-07-04 07:15:44 51°19.77 2°51.895 13.4 328 15.7 100330 100
2005-07-04 07:15:49 51°19.787 2°51.891 14.7 323 15.7 100330 100
2005-07-04 07:15:54 51°19.805 2°51.888 14 326 15.7 100320 100
2005-07-04 07:15:59 51°19.823 2°51.885 14 325 15.7 100320 100
2005-07-04 07:16:04 51°19.839 2°51.882 14 324 15.7 100330 100
2005-07-04 07:16:09 51°19.859 2°51.878 14 325 15.7 100330 100
2005-07-04 07:16:14 51°19.877 2°51.875 14.6 327 15.7 100320 100
2005-07-04 07:16:20 51°19.897 2°51.871 13.3 324 15.7 100320 100
2005-07-04 07:16:24 51°19.913 2°51.868 13.4 332 15.7 100320 100
2005-07-04 07:16:30 51°19.933 2°51.864 14 329 15.7 100320 100
2005-07-04 07:16:34 51°19.949 2°51.861 13.9 326 15.7 100330 100
2005-07-04 07:16:39 51°19.967 2°51.857 13.3 331 15.7 100330 100
2005-07-04 07:16:44 51°19.983 2°51.853 14.2 326 15.7 100320 100
2005-07-04 07:16:50 51°20.005 2°51.849 14.2 328 15.7 100320 100
2005-07-04 07:16:54 51°20.021 2°51.846 14 325 15.7 100330 100
2005-07-04 07:16:59 51°20.039 2°51.843 13.8 326 15.7 100330 100
2005-07-04 07:17:04 51°20.055 2°51.84 12.9 333 15.7 100320 100
2005-07-04 07:17:09 51°20.075 2°51.836 14.3 333 15.7 100320 100
2005-07-04 07:17:14 51°20.093 2°51.832 13.8 330 15.6 100320 100
2005-07-04 07:17:20 51°20.112 2°51.828 13.1 330 15.6 100320 100
2005-07-04 07:17:24 51°20.127 2°51.825 13.5 329 15.6 100310 100
2005-07-04 07:17:29 51°20.146 2°51.821 13.6 332 15.6 100310 100
2005-07-04 07:17:34 51°20.165 2°51.818 13.8 329 15.7 100330 100
2005-07-04 07:17:39 51°20.183 2°51.814 13.5 332 15.7 100330 100
2005-07-04 07:17:44 51°20.199 2°51.811 13.8 335 15.7 100320 100
2005-07-04 07:17:50 51°20.221 2°51.807 13.1 329 15.7 100320 100
2005-07-04 07:17:54 51°20.237 2°51.804 13.2 331 15.7 100320 100
2005-07-04 07:17:58 51°20.252 2°51.801 13.9 331 15.7 100320 100
2005-07-04 07:18:04 51°20.272 2°51.798 12.9 330 15.7 100320 100
2005-07-04 07:18:09 51°20.292 2°51.794 13.1 332 15.7 100320 100
2005-07-04 07:18:14 51°20.31 2°51.79 13.8 332 15.6 100320 100
2005-07-04 07:18:19 51°20.326 2°51.787 13 333 15.6 100320 100
2005-07-04 07:18:24 51°20.344 2°51.784 13.7 336 15.7 100310 100
2005-07-04 07:18:29 51°20.364 2°51.78 14 332 15.7 100310 100
2005-07-04 07:18:34 51°20.382 2°51.777 13 334 15.7 100310 100
2005-07-04 07:18:38 51°20.396 2°51.774 13.5 335 15.7 100310 100
2005-07-04 07:18:44 51°20.418 2°51.771 12.9 334 15.7 100320 100
2005-07-04 07:18:49 51°20.436 2°51.767 13.4 335 15.7 100320 100
2005-07-04 07:18:54 51°20.454 2°51.764 12.8 334 15.7 100320 100
2005-07-04 07:18:59 51°20.472 2°51.761 13.4 333 15.7 100320 100
2005-07-04 07:19:04 51°20.49 2°51.758 12.7 335 15.7 100310 100
2005-07-04 07:19:09 51°20.508 2°51.755 13.9 334 15.7 100310 100
2005-07-04 07:19:14 51°20.526 2°51.751 14.2 332 15.7 100320 100
2005-07-04 07:19:20 51°20.546 2°51.748 13.8 335 15.7 100320 100
2005-07-04 07:19:24 51°20.562 2°51.744 13.5 335 15.7 100310 100
2005-07-04 07:19:30 51°20.582 2°51.74 13.1 336 15.7 100310 100
2005-07-04 07:19:34 51°20.598 2°51.737 13.8 333 15.7 100320 100
2005-07-04 07:19:38 51°20.612 2°51.734 14.1 332 15.7 100320 100
2005-07-04 07:19:44 51°20.634 2°51.729 13.5 335 15.7 100310 100
2005-07-04 07:19:49 51°20.652 2°51.725 14 332 15.7 100310 100
2005-07-04 07:19:54 51°20.671 2°51.722 13.6 334 15.7 100310 100
2005-07-04 07:19:58 51°20.685 2°51.718 14.1 333 15.7 100310 100
2005-07-04 07:20:04 51°20.706 2°51.714 13.1 336 15.7 100310 100
2005-07-04 07:20:10 51°20.726 2°51.71 13.6 333 15.7 100310 100
2005-07-04 07:20:14 51°20.743 2°51.707 13.4 334 15.7 100310 100
2005-07-04 07:20:19 51°20.761 2°51.704 13.2 334 15.7 100310 100
2005-07-04 07:20:24 51°20.777 2°51.701 13.4 333 15.7 100310 100
2005-07-04 07:20:29 51°20.797 2°51.697 13.2 336 15.7 100310 100
2005-07-04 07:20:34 51°20.815 2°51.694 14 337 15.7 100310 100
2005-07-04 07:20:39 51°20.833 2°51.69 13.7 334 15.7 100310 100
2005-07-04 07:20:44 51°20.852 2°51.687 12.9 334 15.8 100310 100
2005-07-04 07:20:49 51°20.87 2°51.683 13.2 332 15.8 100310 100
2005-07-04 07:20:54 51°20.889 2°51.679 12.5 330 15.8 100310 100
2005-07-04 07:20:58 51°20.905 2°51.676 13.6 332 15.8 100310 100
2005-07-04 07:21:04 51°20.928 2°51.672 13.1 337 15.7 100300 100
2005-07-04 07:21:09 51°20.944 2°51.668 13 336 15.7 100300 100
2005-07-04 07:21:14 51°20.96 2°51.664 13.4 337 15.7 100300 100
2005-07-04 07:21:19 51°20.978 2°51.66 13.2 336 15.7 100300 100
2005-07-04 07:21:24 51°20.994 2°51.656 13.2 338 15.7 100300 100
2005-07-04 07:21:30 51°21.017 2°51.651 14.3 338 15.7 100300 100
2005-07-04 07:21:34 51°21.034 2°51.648 14.3 336 15.7 100310 100
2005-07-04 07:21:39 51°21.054 2°51.644 13.7 335 15.7 100310 100
2005-07-04 07:21:44 51°21.068 2°51.64 13.3 341 15.8 100310 100
2005-07-04 07:21:49 51°21.088 2°51.635 13.4 336 15.8 100310 100
2005-07-04 07:21:54 51°21.106 2°51.632 12.5 340 15.8 100300 100
2005-07-04 07:21:59 51°21.123 2°51.628 13.5 341 15.8 100300 100
2005-07-04 07:22:04 51°21.143 2°51.623 12.9 338 15.8 100300 100
2005-07-04 07:22:09 51°21.161 2°51.619 13.3 337 15.8 100300 100
2005-07-04 07:22:14 51°21.179 2°51.615 13.1 338 15.8 100300 100
2005-07-04 07:22:18 51°21.193 2°51.613 13.2 339 15.8 100300 100
2005-07-04 07:22:24 51°21.213 2°51.609 12.9 338 15.8 100300 100
2005-07-04 07:22:30 51°21.235 2°51.604 14.1 339 15.8 100300 100
2005-07-04 07:22:34 51°21.252 2°51.6 13.7 338 15.8 100300 100
2005-07-04 07:22:39 51°21.27 2°51.596 14.1 337 15.8 100300 100
2005-07-04 07:22:44 51°21.287 2°51.592 14.1 336 15.8 100300 100
2005-07-04 07:22:50 51°21.309 2°51.588 14.2 338 15.8 100300 100
2005-07-04 07:22:54 51°21.324 2°51.585 13.5 333 15.8 100300 100
2005-07-04 07:23:00 51°21.345 2°51.581 13.3 338 15.8 100300 100
2005-07-04 07:23:04 51°21.359 2°51.578 13.8 340 15.9 100300 100
2005-07-04 07:23:09 51°21.379 2°51.574 13 340 15.9 100300 100
2005-07-04 07:23:14 51°21.398 2°51.57 12.9 338 15.8 100290 100
2005-07-04 07:23:20 51°21.418 2°51.565 13.5 337 15.8 100290 100
2005-07-04 07:23:24 51°21.434 2°51.561 13.4 335 15.8 100290 100
2005-07-04 07:23:29 51°21.451 2°51.558 13.4 340 15.8 100290 100
2005-07-04 07:23:34 51°21.471 2°51.553 13.5 338 15.8 100290 100
2005-07-04 07:23:39 51°21.489 2°51.549 13.5 339 15.8 100290 100
2005-07-04 07:23:44 51°21.505 2°51.545 13 337 15.8 100290 100
2005-07-04 07:23:50 51°21.527 2°51.54 13.6 339 15.8 100290 100
2005-07-04 07:23:54 51°21.544 2°51.537 13.9 337 15.8 100290 100
2005-07-04 07:24:00 51°21.564 2°51.532 13.1 336 15.8 100290 100
2005-07-04 07:24:04 51°21.578 2°51.529 12.4 340 15.8 100300 100
2005-07-04 07:24:08 51°21.593 2°51.526 13.8 336 15.8 100300 100
2005-07-04 07:24:14 51°21.617 2°51.521 14 339 15.8 100290 100
2005-07-04 07:24:18 51°21.632 2°51.518 14.4 339 15.8 100290 100
2005-07-04 07:24:24 51°21.654 2°51.513 13.5 338 15.9 100300 100
2005-07-04 07:24:30 51°21.674 2°51.508 13 339 15.9 100300 100
2005-07-04 07:24:34 51°21.69 2°51.504 13.2 340 15.9 100300 100
2005-07-04 07:24:39 51°21.709 2°51.499 14.4 338 15.9 100300 100
2005-07-04 07:24:44 51°21.725 2°51.495 14 338 15.9 100290 100
2005-07-04 07:24:49 51°21.744 2°51.491 14.2 337 15.9 100290 100
2005-07-04 07:24:54 51°21.763 2°51.488 13.3 337 15.9 100290 100
2005-07-04 07:25:00 51°21.784 2°51.486 13.7 335 15.9 100290 100
2005-07-04 07:25:04 51°21.798 2°51.483 12.3 335 15.9 100290 100
2005-07-04 07:25:08 51°21.813 2°51.482 13.5 336 15.9 100290 100
2005-07-04 07:25:14 51°21.837 2°51.48 11.8 336 15.9 100290 100
2005-07-04 07:25:19 51°21.853 2°51.478 12.3 337 15.9 100290 100
2005-07-04 07:25:24 51°21.873 2°51.477 12.8 339 15.9 100290 100
2005-07-04 07:25:29 51°21.891 2°51.476 13.5 336 15.9 100290 100
2005-07-04 07:25:34 51°21.909 2°51.475 12.8 333 15.8 100290 100
2005-07-04 07:25:38 51°21.924 2°51.474 13.5 339 15.8 100290 100
2005-07-04 07:25:44 51°21.945 2°51.471 14.2 338 15.9 100290 100
2005-07-04 07:25:49 51°21.964 2°51.47 12.3 331 15.9 100290 100
2005-07-04 07:25:54 51°21.984 2°51.469 13.5 338 15.9 100290 100
2005-07-04 07:25:59 51°22.003 2°51.467 13.9 337 15.9 100290 100
2005-07-04 07:26:04 51°22.02 2°51.466 13.6 340 15.8 100290 100
2005-07-04 07:26:09 51°22.039 2°51.465 14.3 337 15.8 100290 100
2005-07-04 07:26:14 51°22.057 2°51.464 13.5 339 15.8 100290 100
2005-07-04 07:26:19 51°22.076 2°51.462 13.4 340 15.8 100290 100
2005-07-04 07:26:24 51°22.092 2°51.461 13.2 343 15.9 100290 100
2005-07-04 07:26:28 51°22.107 2°51.459 13.1 342 15.9 100290 100
2005-07-04 07:26:34 51°22.131 2°51.458 14.2 342 15.9 100290 100
2005-07-04 07:26:38 51°22.146 2°51.456 13.3 343 15.9 100290 100
2005-07-04 07:26:44 51°22.166 2°51.454 13.8 340 15.9 100290 100
2005-07-04 07:26:49 51°22.187 2°51.452 13 340 15.9 100290 100
2005-07-04 07:26:54 51°22.205 2°51.45 13.8 340 15.9 100290 100
2005-07-04 07:27:00 51°22.225 2°51.448 13.6 340 15.9 100290 100
2005-07-04 07:27:04 51°22.242 2°51.446 13.1 341 15.9 100290 100
2005-07-04 07:27:08 51°22.257 2°51.445 13.8 339 15.9 100290 100
2005-07-04 07:27:14 51°22.279 2°51.443 12.7 345 15.9 100290 100
2005-07-04 07:27:18 51°22.293 2°51.442 13.4 339 15.9 100290 100
2005-07-04 07:27:23 51°22.312 2°51.441 12.8 339 15.9 100290 100
2005-07-04 07:27:28 51°22.329 2°51.44 13.9 340 15.9 100290 100
2005-07-04 07:27:34 51°22.353 2°51.44 13.9 339 15.9 100290 100
2005-07-04 07:27:40 51°22.373 2°51.439 12.3 339 15.9 100290 100
2005-07-04 07:27:44 51°22.389 2°51.44 12.9 340 15.9 100300 100
2005-07-04 07:27:49 51°22.408 2°51.439 13.5 336 15.9 100300 100
2005-07-04 07:27:54 51°22.426 2°51.439 12.3 339 15.9 100300 100
2005-07-04 07:27:58 51°22.441 2°51.439 13 341 15.9 100300 100
2005-07-04 07:28:04 51°22.461 2°51.439 13.4 339 15.9 100290 100
2005-07-04 07:28:09 51°22.481 2°51.439 13.6 337 15.9 100290 100
2005-07-04 07:28:14 51°22.499 2°51.439 13.9 336 15.9 100290 100
2005-07-04 07:28:20 51°22.519 2°51.439 13.4 337 15.9 100290 100
2005-07-04 07:28:24 51°22.534 2°51.439 13.6 339 15.9 100300 100
2005-07-04 07:28:29 51°22.554 2°51.44 13.4 336 15.9 100300 100
2005-07-04 07:28:34 51°22.572 2°51.44 13.6 335 15.9 100300 100
2005-07-04 07:28:39 51°22.59 2°51.441 13 336 15.9 100300 100
2005-07-04 07:28:44 51°22.607 2°51.441 12.8 337 15.9 100300 100
2005-07-04 07:28:49 51°22.627 2°51.441 12.2 339 15.9 100300 100
2005-07-04 07:28:54 51°22.645 2°51.441 13.4 339 15.9 100300 100
2005-07-04 07:28:58 51°22.66 2°51.442 12.6 342 15.9 100300 100
2005-07-04 07:29:04 51°22.68 2°51.442 12.5 339 15.8 100290 100
2005-07-04 07:29:09 51°22.7 2°51.442 13.1 340 15.8 100290 100
2005-07-04 07:29:14 51°22.719 2°51.442 13.3 338 15.8 100300 100
2005-07-04 07:29:18 51°22.733 2°51.442 12.3 334 15.8 100300 100
2005-07-04 07:29:24 51°22.753 2°51.442 13.2 341 15.9 100310 100
2005-07-04 07:29:29 51°22.773 2°51.443 13.3 336 15.9 100310 100
2005-07-04 07:29:34 51°22.792 2°51.444 12.4 341 15.9 100300 100
2005-07-04 07:29:39 51°22.81 2°51.444 12.6 335 15.9 100300 100
2005-07-04 07:29:44 51°22.828 2°51.444 12.2 339 15.9 100300 100
2005-07-04 07:29:49 51°22.846 2°51.444 13.6 338 15.9 100300 100
2005-07-04 07:29:54 51°22.864 2°51.444 12.9 337 15.9 100300 100
2005-07-04 07:29:59 51°22.881 2°51.444 12.3 339 15.9 100300 100
2005-07-04 07:30:04 51°22.898 2°51.444 13.3 335 15.9 100310 100
2005-07-04 07:30:09 51°22.916 2°51.445 12.5 338 15.9 100310 100
2005-07-04 07:30:14 51°22.936 2°51.445 12.5 340 15.8 100310 100
2005-07-04 07:30:18 51°22.95 2°51.444 12.9 334 15.8 100310 100
2005-07-04 07:30:24 51°22.969 2°51.445 11.7 336 15.8 100310 100
2005-07-04 07:30:29 51°22.989 2°51.446 12.6 333 15.8 100310 100
2005-07-04 07:30:34 51°23.007 2°51.447 12 338 15.8 100300 100
2005-07-04 07:30:38 51°23.021 2°51.448 12.2 335 15.8 100300 100
2005-07-04 07:30:44 51°23.04 2°51.45 11.8 337 15.8 100310 100
2005-07-04 07:30:49 51°23.059 2°51.452 12.6 337 15.8 100310 100
2005-07-04 07:30:54 51°23.077 2°51.453 12.9 337 15.8 100300 100
2005-07-04 07:31:00 51°23.097 2°51.455 12.3 335 15.8 100300 100
2005-07-04 07:31:04 51°23.111 2°51.456 12 334 15.8 100310 100
2005-07-04 07:31:09 51°23.13 2°51.458 11.6 333 15.8 100310 100
2005-07-04 07:31:14 51°23.148 2°51.459 11.7 337 15.8 100300 100
2005-07-04 07:31:19 51°23.165 2°51.462 12.6 338 15.8 100300 100
2005-07-04 07:31:24 51°23.181 2°51.464 11.7 336 15.8 100300 100
2005-07-04 07:31:30 51°23.202 2°51.466 13.1 335 15.8 100300 100
2005-07-04 07:31:34 51°23.217 2°51.468 12.4 342 15.9 100310 100
2005-07-04 07:31:38 51°23.231 2°51.47 12.2 336 15.9 100310 100
2005-07-04 07:31:44 51°23.25 2°51.472 11.8 337 15.9 100300 100
2005-07-04 07:31:48 51°23.264 2°51.474 12 340 15.9 100300 100
2005-07-04 07:31:54 51°23.286 2°51.476 13.1 337 15.8 100300 100
2005-07-04 07:31:59 51°23.304 2°51.479 12.1 338 15.8 100300 100
2005-07-04 07:32:04 51°23.319 2°51.48 11.3 338 15.8 100310 100
2005-07-04 07:32:09 51°23.338 2°51.482 12.3 338 15.8 100310 100
2005-07-04 07:32:14 51°23.355 2°51.484 11.2 338 15.9 100310 100
2005-07-04 07:32:20 51°23.374 2°51.486 12.6 339 15.9 100310 100
2005-07-04 07:32:24 51°23.388 2°51.487 11.9 341 15.9 100310 100
2005-07-04 07:32:27 51°23.399 2°51.489 13.1 337 15.9 100310 100
2005-07-04 07:32:34 51°23.423 2°51.492 12.6 337 15.8 100310 100
2005-07-04 07:32:39 51°23.442 2°51.494 12.6 338 15.8 100310 100
2005-07-04 07:32:44 51°23.457 2°51.495 12.7 340 15.9 100310 100
2005-07-04 07:32:48 51°23.472 2°51.497 11.7 336 15.9 100310 100
2005-07-04 07:32:54 51°23.493 2°51.499 11.9 341 15.8 100300 100
2005-07-04 07:32:59 51°23.509 2°51.501 12.6 337 15.8 100300 100
2005-07-04 07:33:04 51°23.526 2°51.503 12.3 340 15.8 100310 100
2005-07-04 07:33:09 51°23.545 2°51.506 12.5 339 15.8 100310 100
2005-07-04 07:33:14 51°23.562 2°51.507 12.5 339 15.8 100300 100
2005-07-04 07:33:20 51°23.581 2°51.509 12.4 339 15.8 100300 100
2005-07-04 07:33:24 51°23.595 2°51.511 13 338 15.8 100310 100
2005-07-04 07:33:30 51°23.616 2°51.513 13.8 340 15.8 100310 100
2005-07-04 07:33:34 51°23.631 2°51.515 13.6 335 15.8 100310 100
2005-07-04 07:33:39 51°23.649 2°51.516 11.9 342 15.8 100310 100
2005-07-04 07:33:44 51°23.664 2°51.518 12 338 15.8 100310 100
2005-07-04 07:33:49 51°23.683 2°51.52 11.8 336 15.8 100310 100
2005-07-04 07:33:54 51°23.701 2°51.521 12.2 341 15.8 100300 100
2005-07-04 07:34:00 51°23.72 2°51.522 12.6 343 15.8 100300 100
2005-07-04 07:34:04 51°23.734 2°51.523 13 336 15.8 100300 100
2005-07-04 07:34:09 51°23.753 2°51.525 11.3 336 15.8 100300 100
2005-07-04 07:34:14 51°23.77 2°51.527 12.8 340 15.8 100300 100
2005-07-04 07:34:18 51°23.784 2°51.528 12.4 340 15.8 100300 100
2005-07-04 07:34:24 51°23.803 2°51.529 12.6 339 15.8 100310 100
2005-07-04 07:34:30 51°23.824 2°51.531 12.8 339 15.8 100310 100
2005-07-04 07:34:34 51°23.84 2°51.533 13 342 15.8 100300 100
2005-07-04 07:34:38 51°23.854 2°51.535 13.3 337 15.8 100300 100
2005-07-04 07:34:44 51°23.873 2°51.536 12 337 15.8 100310 100
2005-07-04 07:34:49 51°23.892 2°51.539 12.8 342 15.8 100310 100
2005-07-04 07:34:54 51°23.91 2°51.54 12.4 343 15.8 100300 100
2005-07-04 07:35:00 51°23.929 2°51.542 12.6 337 15.8 100300 100
2005-07-04 07:35:04 51°23.945 2°51.544 12.5 337 15.7 100300 100
2005-07-04 07:35:09 51°23.961 2°51.546 12.2 340 15.7 100300 100
2005-07-04 07:35:14 51°23.98 2°51.548 13.5 339 15.8 100300 100
2005-07-04 07:35:19 51°23.997 2°51.549 12.4 337 15.8 100300 100
2005-07-04 07:35:24 51°24.013 2°51.551 12.4 336 15.8 100300 100
2005-07-04 07:35:29 51°24.032 2°51.552 12 342 15.8 100300 100
2005-07-04 07:35:34 51°24.05 2°51.554 13.1 337 15.7 100300 100
2005-07-04 07:35:40 51°24.069 2°51.556 12.6 337 15.7 100300 100
2005-07-04 07:35:44 51°24.085 2°51.557 12.6 342 15.7 100300 100
2005-07-04 07:35:49 51°24.103 2°51.558 13 341 15.7 100300 100
2005-07-04 07:35:54 51°24.12 2°51.559 13.3 341 15.7 100300 100
2005-07-04 07:35:59 51°24.138 2°51.559 13.1 339 15.7 100300 100
2005-07-04 07:36:04 51°24.154 2°51.56 12.3 336 15.7 100300 100
2005-07-04 07:36:09 51°24.171 2°51.56 12.5 337 15.7 100300 100
2005-07-04 07:36:14 51°24.191 2°51.561 11.8 337 15.7 100310 100
2005-07-04 07:36:19 51°24.208 2°51.561 13.2 341 15.7 100310 100
2005-07-04 07:36:24 51°24.226 2°51.561 13.1 342 15.7 100300 100
2005-07-04 07:36:29 51°24.242 2°51.562 12.5 337 15.7 100300 100
2005-07-04 07:36:34 51°24.261 2°51.562 13.3 337 15.7 100300 100
2005-07-04 07:36:39 51°24.279 2°51.563 12.7 338 15.7 100300 100
2005-07-04 07:36:44 51°24.296 2°51.564 12.9 338 15.7 100300 100
2005-07-04 07:36:49 51°24.314 2°51.564 13.1 338 15.7 100300 100
2005-07-04 07:36:54 51°24.331 2°51.565 12.1 341 15.7 100300 100
2005-07-04 07:36:59 51°24.349 2°51.565 13.5 337 15.7 100300 100
2005-07-04 07:37:04 51°24.367 2°51.566 13.1 337 15.7 100300 100
2005-07-04 07:37:10 51°24.386 2°51.567 13.4 338 15.7 100300 100
2005-07-04 07:37:14 51°24.402 2°51.567 12.9 336 15.7 100300 100
2005-07-04 07:37:18 51°24.416 2°51.567 13.4 340 15.7 100300 100
2005-07-04 07:37:24 51°24.436 2°51.568 12.9 339 15.7 100300 100
2005-07-04 07:37:30 51°24.457 2°51.569 13.5 342 15.7 100300 100
2005-07-04 07:37:34 51°24.473 2°51.569 12.4 342 15.7 100300 100
2005-07-04 07:37:39 51°24.49 2°51.57 13.1 342 15.7 100300 100
2005-07-04 07:37:44 51°24.508 2°51.57 13.1 340 15.7 100300 100
2005-07-04 07:37:49 51°24.524 2°51.57 12.9 343 15.7 100300 100
2005-07-04 07:37:54 51°24.541 2°51.571 13 337 15.7 100300 100
2005-07-04 07:38:00 51°24.563 2°51.571 13.3 341 15.7 100300 100
2005-07-04 07:38:04 51°24.579 2°51.572 13 340 15.7 100300 100
2005-07-04 07:38:10 51°24.598 2°51.573 13 339 15.7 100300 100
2005-07-04 07:38:14 51°24.614 2°51.573 12.2 338 15.7 100300 100
2005-07-04 07:38:18 51°24.628 2°51.573 12.9 340 15.7 100300 100
2005-07-04 07:38:24 51°24.648 2°51.574 13.1 340 15.7 100300 100
2005-07-04 07:38:29 51°24.667 2°51.574 13.2 338 15.7 100300 100
2005-07-04 07:38:34 51°24.685 2°51.575 12.6 339 15.7 100290 100
2005-07-04 07:38:39 51°24.703 2°51.576 13.3 337 15.7 100290 100
2005-07-04 07:38:44 51°24.719 2°51.576 13.4 343 15.7 100300 100
2005-07-04 07:38:50 51°24.74 2°51.577 13.2 343 15.7 100300 100
2005-07-04 07:38:54 51°24.756 2°51.577 13.8 337 15.7 100300 100
2005-07-04 07:38:59 51°24.773 2°51.577 13.4 339 15.7 100300 100
2005-07-04 07:39:04 51°24.79 2°51.578 13.3 338 15.7 100300 100
2005-07-04 07:39:09 51°24.81 2°51.578 14 338 15.7 100300 100
2005-07-04 07:39:14 51°24.828 2°51.579 12.3 340 15.7 100290 100
2005-07-04 07:39:20 51°24.847 2°51.579 14.4 339 15.7 100290 100
2005-07-04 07:39:24 51°24.861 2°51.579 14.1 340 15.7 100300 100
2005-07-04 07:39:29 51°24.881 2°51.579 14.4 340 15.7 100300 100
2005-07-04 07:39:34 51°24.899 2°51.58 13.9 337 15.7 100300 100
2005-07-04 07:39:39 51°24.916 2°51.58 13.8 338 15.7 100300 100
2005-07-04 07:39:44 51°24.933 2°51.581 12.5 341 15.7 100290 100
2005-07-04 07:39:49 51°24.952 2°51.58 12.6 339 15.7 100290 100
2005-07-04 07:39:54 51°24.97 2°51.581 13.2 338 15.7 100300 100
2005-07-04 07:40:00 51°24.99 2°51.58 14.2 341 15.7 100300 100
2005-07-04 07:40:04 51°25.004 2°51.581 14.3 338 15.6 100300 100
2005-07-04 07:40:10 51°25.025 2°51.581 13.5 340 15.6 100300 100
2005-07-04 07:40:14 51°25.041 2°51.581 13.5 337 15.6 100300 100
2005-07-04 07:40:19 51°25.057 2°51.581 13.8 340 15.6 100300 100
2005-07-04 07:40:25 51°25.079 2°51.581 13.6 340 15.6 100300 100
2005-07-04 07:40:29 51°25.094 2°51.581 12.4 342 15.6 100300 100
2005-07-04 07:40:34 51°25.112 2°51.581 13.9 341 15.6 100300 100
2005-07-04 07:40:39 51°25.128 2°51.582 13.3 336 15.6 100300 100
2005-07-04 07:40:43 51°25.144 2°51.582 13.3 338 15.6 100300 100
2005-07-04 07:40:49 51°25.165 2°51.583 13.5 342 15.6 100300 100
2005-07-04 07:40:54 51°25.183 2°51.583 14.6 339 15.7 100300 100
2005-07-04 07:40:59 51°25.201 2°51.584 14.1 339 15.7 100300 100
2005-07-04 07:41:04 51°25.216 2°51.584 14.6 339 15.6 100300 100
2005-07-04 07:41:09 51°25.236 2°51.584 13.5 339 15.6 100300 100
2005-07-04 07:41:14 51°25.254 2°51.584 14.1 337 15.7 100300 100
2005-07-04 07:41:19 51°25.271 2°51.585 13.4 338 15.7 100300 100
2005-07-04 07:41:24 51°25.287 2°51.585 13.6 339 15.6 100290 100
2005-07-04 07:41:29 51°25.307 2°51.586 13.3 340 15.6 100290 100
2005-07-04 07:41:34 51°25.324 2°51.586 13.9 338 15.6 100290 100
2005-07-04 07:41:40 51°25.344 2°51.587 13.4 339 15.6 100290 100
2005-07-04 07:41:44 51°25.358 2°51.587 13.9 338 15.6 100290 100
2005-07-04 07:41:50 51°25.379 2°51.588 13.9 339 15.6 100290 100
2005-07-04 07:41:54 51°25.395 2°51.588 15.1 337 15.6 100300 100
2005-07-04 07:41:59 51°25.413 2°51.589 13.8 337 15.6 100300 100
2005-07-04 07:42:04 51°25.428 2°51.589 14.3 338 15.6 100290 100
2005-07-04 07:42:09 51°25.448 2°51.589 13.5 340 15.6 100290 100
2005-07-04 07:42:14 51°25.466 2°51.59 13.1 339 15.6 100300 100
2005-07-04 07:42:20 51°25.485 2°51.59 13.7 340 15.6 100300 100
2005-07-04 07:42:24 51°25.501 2°51.591 13.3 337 15.6 100300 100
2005-07-04 07:42:29 51°25.517 2°51.591 13.2 340 15.6 100300 100
2005-07-04 07:42:34 51°25.536 2°51.592 13.9 337 15.6 100290 100
2005-07-04 07:42:39 51°25.554 2°51.593 12.9 339 15.6 100290 100
2005-07-04 07:42:44 51°25.569 2°51.594 14.2 338 15.6 100290 100
2005-07-04 07:42:49 51°25.589 2°51.594 13.1 340 15.6 100290 100
2005-07-04 07:42:54 51°25.606 2°51.596 13.2 339 15.6 100290 100
2005-07-04 07:43:00 51°25.626 2°51.597 14 339 15.6 100290 100
2005-07-04 07:43:04 51°25.641 2°51.598 13.4 340 15.6 100300 100
2005-07-04 07:43:09 51°25.659 2°51.598 13.4 340 15.6 100300 100
2005-07-04 07:43:14 51°25.677 2°51.598 12.8 341 15.6 100290 100
2005-07-04 07:43:20 51°25.696 2°51.599 14 337 15.6 100290 100
2005-07-04 07:43:24 51°25.71 2°51.599 14.8 339 15.6 100300 100
2005-07-04 07:43:30 51°25.731 2°51.6 14 340 15.6 100300 100
2005-07-04 07:43:34 51°25.747 2°51.601 14.6 336 15.6 100300 100
2005-07-04 07:43:39 51°25.763 2°51.602 14.6 337 15.6 100300 100
2005-07-04 07:43:44 51°25.783 2°51.603 14.9 334 15.7 100290 100
2005-07-04 07:43:49 51°25.799 2°51.603 13.7 338 15.7 100290 100
2005-07-04 07:43:54 51°25.818 2°51.605 14.5 334 15.6 100300 100
2005-07-04 07:43:59 51°25.836 2°51.606 15.1 341 15.6 100300 100
2005-07-04 07:44:04 51°25.852 2°51.607 15.3 339 15.6 100290 100
2005-07-04 07:44:10 51°25.873 2°51.609 15.1 337 15.6 100290 100
2005-07-04 07:44:14 51°25.889 2°51.61 16 338 15.6 100290 100
2005-07-04 07:44:19 51°25.907 2°51.612 14.6 338 15.6 100290 100
2005-07-04 07:44:24 51°25.924 2°51.613 13.6 336 15.6 100280 100
2005-07-04 07:44:30 51°25.944 2°51.615 13.8 336 15.6 100280 100
2005-07-04 07:44:34 51°25.958 2°51.618 14.6 337 15.6 100280 100
2005-07-04 07:44:40 51°25.979 2°51.623 13.6 337 15.6 100280 100
2005-07-04 07:44:44 51°25.993 2°51.627 14.3 330 15.5 100270 100
2005-07-04 07:44:49 51°26.012 2°51.633 14.7 331 15.5 100270 100
2005-07-04 07:44:54 51°26.029 2°51.638 13.2 334 15.5 100290 100
2005-07-04 07:44:58 51°26.043 2°51.643 13.7 335 15.5 100290 100
2005-07-04 07:45:04 51°26.064 2°51.65 13.8 331 15.5 100280 100
2005-07-04 07:45:09 51°26.082 2°51.656 13.5 332 15.5 100280 100
2005-07-04 07:45:14 51°26.099 2°51.662 12.9 335 15.5 100280 100
2005-07-04 07:45:20 51°26.118 2°51.669 13.7 328 15.5 100280 100
2005-07-04 07:45:24 51°26.134 2°51.674 15 328 15.5 100290 100
2005-07-04 07:45:29 51°26.15 2°51.68 13.4 333 15.5 100290 100
2005-07-04 07:45:34 51°26.169 2°51.686 14.8 332 15.6 100280 100
2005-07-04 07:45:39 51°26.186 2°51.692 14.4 330 15.6 100280 100
2005-07-04 07:45:44 51°26.202 2°51.698 13.6 331 15.5 100280 100
2005-07-04 07:45:50 51°26.223 2°51.705 15 333 15.5 100280 100
2005-07-04 07:45:54 51°26.238 2°51.712 15.2 330 15.5 100290 100
2005-07-04 07:45:58 51°26.252 2°51.717 14.4 330 15.5 100290 100
2005-07-04 07:46:03 51°26.269 2°51.725 14.2 332 15.5 100280 100
2005-07-04 07:46:09 51°26.289 2°51.734 14.8 327 15.5 100280 100
2005-07-04 07:46:14 51°26.306 2°51.742 13.8 329 15.5 100280 100
2005-07-04 07:46:20 51°26.325 2°51.75 13.7 329 15.5 100280 100
2005-07-04 07:46:24 51°26.338 2°51.757 13.5 323 15.5 100280 100
2005-07-04 07:46:29 51°26.357 2°51.767 12.6 330 15.5 100280 100
2005-07-04 07:46:34 51°26.373 2°51.776 13.8 327 15.5 100280 100
2005-07-04 07:46:40 51°26.391 2°51.787 13.9 321 15.5 100280 100
2005-07-04 07:46:44 51°26.405 2°51.794 13.1 324 15.5 100270 100
2005-07-04 07:46:49 51°26.423 2°51.806 12.9 325 15.5 100270 100
2005-07-04 07:46:54 51°26.439 2°51.816 13.2 327 15.5 100280 100
2005-07-04 07:46:58 51°26.452 2°51.824 13.2 330 15.5 100280 100
2005-07-04 07:47:04 51°26.471 2°51.834 13.9 329 15.5 100280 100
2005-07-04 07:47:10 51°26.491 2°51.846 13.9 327 15.5 100280 100
2005-07-04 07:47:14 51°26.506 2°51.855 13.6 325 15.5 100280 100
2005-07-04 07:47:19 51°26.52 2°51.864 14.1 320 15.5 100280 100
2005-07-04 07:47:25 51°26.537 2°51.875 12.8 321 15.5 100280 100
2005-07-04 07:47:30 51°26.55 2°51.883 12.8 320 15.5 100280 100
2005-07-04 07:47:34 51°26.561 2°51.889 13.3 319 15.5 100270 100
2005-07-04 07:47:39 51°26.573 2°51.896 12.1 42 15.5 100270 100
2005-07-04 07:47:44 51°26.583 2°51.902 12 315 15.5 100280 100
2005-07-04 07:47:50 51°26.595 2°51.911 11.7 309 15.5 100280 100
2005-07-04 07:47:54 51°26.603 2°51.918 11.9 304 15.5 100290 100
2005-07-04 07:47:58 51°26.61 2°51.925 10.2 304 15.5 100290 100
2005-07-04 07:48:03 51°26.617 2°51.933 10.4 299 15.5 100290 100
2005-07-04 07:48:09 51°26.626 2°51.944 9.1 294 15.5 100290 100
2005-07-04 07:48:14 51°26.633 2°51.952 11.1 303 15.5 100290 100
2005-07-04 07:48:19 51°26.64 2°51.96 9.8 303 15.5 100290 100
2005-07-04 07:48:24 51°26.646 2°51.968 9.9 303 15.5 100290 100
2005-07-04 07:48:30 51°26.654 2°51.976 10.2 305 15.5 100290 100
2005-07-04 07:48:34 51°26.66 2°51.982 10.2 305 15.5 100310 100
2005-07-04 07:48:40 51°26.667 2°51.989 11.7 307 15.5 100310 100
2005-07-04 07:48:44 51°26.673 2°51.993 10.7 307 15.6 100310 100
2005-07-04 07:48:46 51°26.676 2°51.996 10 309 15.6 100310 100
2005-07-04 07:48:54 51°26.687 2°52.002 11 311 15.6 100310 100
2005-07-04 07:48:59 51°26.694 2°52.006 11.8 311 15.6 100310 100
2005-07-04 07:49:04 51°26.7 2°52.009 11.2 310 15.6 100300 100
2005-07-04 07:49:08 51°26.705 2°52.012 11.4 310 15.6 100300 100
2005-07-04 07:49:14 51°26.714 2°52.016 11.3 305 15.6 100300 100
2005-07-04 07:49:20 51°26.721 2°52.02 11.8 304 15.6 100300 100
2005-07-04 07:49:24 51°26.726 2°52.023 11.9 305 15.6 100300 100
2005-07-04 07:49:29 51°26.732 2°52.027 11.2 302 15.6 100300 100
2005-07-04 07:49:34 51°26.738 2°52.03 11 299 15.5 100300 100
2005-07-04 07:49:39 51°26.743 2°52.032 9.9 305 15.5 100300 100
2005-07-04 07:49:44 51°26.747 2°52.034 9 301 15.5 100290 100
2005-07-04 07:49:50 51°26.751 2°52.037 10.6 292 15.5 100290 100
2005-07-04 07:49:54 51°26.753 2°52.038 10.9 287 15.5 100300 100
2005-07-04 07:49:59 51°26.754 2°52.038 10.4 280 15.5 100300 100
2005-07-04 07:50:04 51°26.755 2°52.038 11.5 275 15.5 100300 100
2005-07-04 07:50:09 51°26.755 2°52.037 11.8 269 15.5 100300 100
2005-07-04 07:50:14 51°26.755 2°52.036 10.4 271 15.6 100310 100
2005-07-04 07:50:19 51°26.754 2°52.035 10.1 266 15.6 100310 100
2005-07-04 07:50:24 51°26.754 2°52.035 9.7 270 15.5 100310 100
2005-07-04 07:50:30 51°26.754 2°52.034 8.5 263 15.5 100310 100
2005-07-04 07:50:34 51°26.754 2°52.033 8.4 261 15.5 100310 100
2005-07-04 07:50:39 51°26.754 2°52.033 8.9 263 15.5 100310 100
2005-07-04 07:50:44 51°26.753 2°52.032 7.7 261 15.5 100320 100
2005-07-04 07:50:50 51°26.753 2°52.031 6 263 15.5 100320 100
2005-07-04 07:50:54 51°26.752 2°52.031 6.2 259 15.5 100330 100
2005-07-04 07:50:58 51°26.752 2°52.03 6.7 257 15.5 100330 100
2005-07-04 07:51:04 51°26.751 2°52.03 6 257 15.6 100330 100
2005-07-04 07:51:09 51°26.75 2°52.029 6.4 255 15.6 100330 100
2005-07-04 07:51:14 51°26.75 2°52.029 7.3 256 15.6 100320 100
2005-07-04 07:51:19 51°26.749 2°52.028 7.2 252 15.6 100320 100
2005-07-04 07:51:24 51°26.749 2°52.028 5.5 257 15.5 100330 100
2005-07-04 07:51:30 51°26.748 2°52.027 7.4 251 15.5 100330 100
2005-07-04 07:51:34 51°26.747 2°52.027 6.1 251 15.5 100330 100
2005-07-04 07:51:39 51°26.747 2°52.027 7.5 252 15.5 100330 100
2005-07-04 07:51:44 51°26.746 2°52.027 7.4 253 15.5 100340 100
2005-07-04 07:51:49 51°26.745 2°52.027 8 256 15.5 100340 100
2005-07-04 07:51:54 51°26.745 2°52.026 6.9 254 15.5 100320 100
2005-07-04 07:51:59 51°26.744 2°52.026 7.4 254 15.5 100320 100
2005-07-04 07:52:04 51°26.743 2°52.026 7.4 258 15.5 100330 100
2005-07-04 07:52:10 51°26.742 2°52.026 6.2 255 15.5 100330 100
2005-07-04 07:52:14 51°26.742 2°52.025 6.8 258 15.5 100340 100
2005-07-04 07:52:20 51°26.741 2°52.025 6.5 256 15.5 100340 100
2005-07-04 07:52:24 51°26.741 2°52.025 8.6 263 15.5 100330 100
2005-07-04 07:52:30 51°26.74 2°52.025 8.5 248 15.5 100330 100
2005-07-04 07:52:34 51°26.739 2°52.025 6.9 257 15.5 100330 100
2005-07-04 07:52:38 51°26.739 2°52.025 8.2 252 15.5 100330 100
2005-07-04 07:52:44 51°26.738 2°52.024 6.3 256 15.5 100330 100
2005-07-04 07:52:49 51°26.737 2°52.024 7.1 257 15.5 100330 100
2005-07-04 07:52:54 51°26.737 2°52.024 8.3 265 15.5 100320 100
2005-07-04 07:52:59 51°26.736 2°52.024 8.2 262 15.5 100320 100
2005-07-04 07:53:04 51°26.736 2°52.023 10.1 269 15.5 100340 100
2005-07-04 07:53:10 51°26.735 2°52.023 9.5 265 15.5 100340 100
2005-07-04 07:53:14 51°26.734 2°52.023 7.3 256 15.5 100340 100
2005-07-04 07:53:20 51°26.734 2°52.023 11.9 267 15.5 100340 100
2005-07-04 07:53:24 51°26.733 2°52.022 11.4 264 15.5 100330 100
2005-07-04 07:53:29 51°26.733 2°52.022 12.4 270 15.5 100330 100
2005-07-04 07:53:34 51°26.732 2°52.022 12.4 268 15.5 100320 100
2005-07-04 07:53:40 51°26.731 2°52.021 10.8 263 15.5 100320 100
2005-07-04 07:53:44 51°26.731 2°52.021 11.2 262 15.5 100330 100
2005-07-04 07:53:49 51°26.73 2°52.02 9.9 269 15.5 100330 100
2005-07-04 07:53:54 51°26.73 2°52.02 10 272 15.5 100320 100
2005-07-04 07:54:00 51°26.729 2°52.02 10.3 273 15.5 100320 100
2005-07-04 07:54:04 51°26.729 2°52.019 12.7 283 15.5 100340 100